Time;durP1;ratioP1;P1;durP2;ratioP2;P2;SDS_P1;SDS_P2;PMS_P1;PMS_P2;Temp;Humidity;BMP_temperature;BMP_pressure;BME280_temperature;BME280_humidity;BME280_pressure;Samples;Min_cycle;Max_cycle;Signal;HPM_P1;HPM_P2
2023/10/27 00:01:00;;;;;;;5.15;1.50;;;;;;;8.43;100.00;91910.91;5057476;28;20497;-60
2023/10/27 00:03:27;;;;;;;4.85;2.13;;;;;;;8.06;100.00;91910.72;5046391;28;20657;-62
2023/10/27 00:05:54;;;;;;;4.33;2.03;;;;;;;8.19;100.00;91912.16;5058949;28;20686;-60
2023/10/27 00:08:21;;;;;;;4.25;1.63;;;;;;;8.14;100.00;91912.72;5060367;28;20036;-60
2023/10/27 00:10:47;;;;;;;5.22;2.20;;;;;;;8.19;100.00;91912.16;5056802;28;20059;-60
2023/10/27 00:13:14;;;;;;;6.32;2.58;;;;;;;8.25;100.00;91912.34;5056809;28;20056;-61
2023/10/27 00:15:41;;;;;;;4.18;1.90;;;;;;;8.31;100.00;91929.66;5040330;28;20086;-60
2023/10/27 00:18:08;;;;;;;5.20;2.13;;;;;;;8.19;100.00;91931.28;5042627;28;20041;-60
2023/10/27 00:20:34;;;;;;;5.80;2.15;;;;;;;8.26;100.00;91916.59;5058231;28;20043;-60
2023/10/27 00:23:01;;;;;;;5.53;2.10;;;;;;;8.00;100.00;91905.09;5053159;28;20051;-60
2023/10/27 00:25:28;;;;;;;5.10;2.05;;;;;;;7.63;100.00;91902.19;5059544;28;20139;-62
2023/10/27 00:27:55;;;;;;;6.53;2.60;;;;;;;7.47;100.00;91910.56;5042647;28;20455;-59
2023/10/27 00:30:22;;;;;;;4.27;2.50;;;;;;;7.65;100.00;91909.94;5059414;28;20490;-59
2023/10/27 00:32:49;;;;;;;5.20;2.00;;;;;;;7.73;100.00;91919.38;5062950;28;20048;-59
2023/10/27 00:35:16;;;;;;;4.03;1.63;;;;;;;7.71;100.00;91929.97;5056270;28;20074;-59
2023/10/27 00:37:42;;;;;;;4.55;2.03;;;;;;;7.86;100.00;91919.28;5057621;28;20474;-60
2023/10/27 00:40:10;;;;;;;3.05;1.70;;;;;;;7.83;100.00;91903.78;5059927;28;20040;-59
2023/10/27 00:42:37;;;;;;;3.43;1.60;;;;;;;7.97;100.00;91908.72;5040041;28;20049;-61
2023/10/27 00:45:04;;;;;;;3.35;1.40;;;;;;;8.10;100.00;91911.34;5056594;28;20053;-60
2023/10/27 00:47:31;;;;;;;4.20;1.90;;;;;;;8.08;100.00;91900.13;5055823;28;20062;-62
2023/10/27 00:49:58;;;;;;;3.58;1.50;;;;;;;8.13;100.00;91896.78;5059839;28;20079;-61
2023/10/27 00:52:27;;;;;;;3.75;1.80;;;;;;;8.20;100.00;91902.00;5051867;28;20059;-62
2023/10/27 00:54:54;;;;;;;3.27;1.53;;;;;;;8.22;100.00;91905.03;5066710;28;20439;-61
2023/10/27 00:57:23;;;;;;;37.70;19.17;;;;;;;8.25;100.00;91901.41;5067900;28;20045;-61
2023/10/27 00:59:52;;;;;;;6.88;2.78;;;;;;;8.11;100.00;91900.00;5066750;28;20048;-61
2023/10/27 01:02:21;;;;;;;3.95;1.50;;;;;;;8.16;100.00;91909.56;5066832;28;20150;-62
2023/10/27 01:04:49;;;;;;;3.88;1.63;;;;;;;8.10;100.00;91912.13;5066925;28;20086;-62
2023/10/27 01:07:16;;;;;;;3.73;1.30;;;;;;;8.14;100.00;91898.31;5068371;28;20048;-62
2023/10/27 01:09:44;;;;;;;2.90;1.30;;;;;;;7.97;100.00;91886.88;5050026;28;20051;-61
2023/10/27 01:12:11;;;;;;;3.42;1.50;;;;;;;7.90;100.00;91887.13;5068118;28;20056;-61
2023/10/27 01:14:38;;;;;;;2.58;1.35;;;;;;;7.78;100.00;91881.31;5067790;28;20398;-61
2023/10/27 01:17:05;;;;;;;2.83;1.40;;;;;;;7.66;100.00;91881.41;5068287;28;20036;-62
2023/10/27 01:19:32;;;;;;;3.20;1.30;;;;;;;7.76;100.00;91875.53;5067455;28;20512;-61
2023/10/27 01:21:59;;;;;;;3.25;1.30;;;;;;;7.83;100.00;91879.97;5067940;28;20048;-60
2023/10/27 01:24:27;;;;;;;2.85;1.30;;;;;;;7.93;100.00;91878.81;5068107;28;20056;-61
2023/10/27 01:26:54;;;;;;;3.47;1.40;;;;;;;7.99;100.00;91879.75;5067122;28;20511;-62
2023/10/27 01:29:23;;;;;;;3.30;1.45;;;;;;;7.82;100.00;91877.69;5068122;28;20048;-61
2023/10/27 01:31:50;;;;;;;2.63;1.20;;;;;;;7.79;100.00;91884.81;5067358;28;20035;-61
2023/10/27 01:34:16;;;;;;;2.83;1.30;;;;;;;7.77;100.00;91881.78;5067985;28;20412;-61
2023/10/27 01:36:43;;;;;;;2.92;1.75;;;;;;;7.80;100.00;91869.94;5067492;28;20093;-62
2023/10/27 01:39:11;;;;;;;14.65;6.88;;;;;;;7.75;100.00;91868.56;5068023;28;20052;-61
2023/10/27 01:41:38;;;;;;;5.65;2.60;;;;;;;7.74;100.00;91863.53;5067659;28;20047;-61
2023/10/27 01:44:05;;;;;;;3.13;1.47;;;;;;;7.80;100.00;91861.75;5068002;28;20047;-61
2023/10/27 01:46:32;;;;;;;5.68;1.52;;;;;;;7.81;100.00;91863.28;5067551;28;20045;-61
2023/10/27 01:48:59;;;;;;;2.60;1.30;;;;;;;7.88;100.00;91859.53;5067519;28;20041;-62
2023/10/27 01:51:25;;;;;;;4.72;1.38;;;;;;;7.88;100.00;91862.25;5067983;28;20077;-61
2023/10/27 01:53:52;;;;;;;4.53;1.55;;;;;;;7.96;100.00;91864.25;5067118;28;20460;-62
2023/10/27 01:56:19;;;;;;;2.37;1.20;;;;;;;8.07;100.00;91857.59;5067753;28;20049;-61
2023/10/27 01:58:45;;;;;;;3.85;1.40;;;;;;;8.06;100.00;91854.13;5067196;28;20037;-61
2023/10/27 02:01:14;;;;;;;3.30;1.48;;;;;;;8.14;100.00;91849.16;5050087;28;20048;-62
2023/10/27 02:03:41;;;;;;;3.75;1.63;;;;;;;8.11;100.00;91845.34;5067334;28;20048;-61
2023/10/27 02:06:08;;;;;;;3.00;1.33;;;;;;;8.18;100.00;91841.56;5067758;28;20044;-61
2023/10/27 02:08:35;;;;;;;3.90;1.50;;;;;;;8.17;100.00;91837.31;5067169;28;20029;-62
2023/10/27 02:11:03;;;;;;;3.10;1.27;;;;;;;8.24;100.00;91839.75;5067821;28;20129;-61
2023/10/27 02:13:29;;;;;;;4.18;1.52;;;;;;;8.29;100.00;91836.44;5067120;28;20057;-61
2023/10/27 02:15:56;;;;;;;2.85;1.27;;;;;;;8.31;100.00;91835.97;5067860;28;20068;-62
2023/10/27 02:18:23;;;;;;;3.95;1.27;;;;;;;8.29;100.00;91835.66;5071288;28;20142;-61
2023/10/27 02:20:50;;;;;;;12.43;7.37;;;;;;;8.16;100.00;91836.53;5070886;28;20036;-61
2023/10/27 02:23:17;;;;;;;12.70;7.90;;;;;;;8.13;100.00;91839.41;5070979;28;20489;-61
2023/10/27 02:25:44;;;;;;;5.82;2.53;;;;;;;8.05;100.00;91849.88;5070675;28;20451;-59
2023/10/27 02:28:11;;;;;;;2.40;1.25;;;;;;;7.73;100.00;91854.59;5071212;28;20048;-59
2023/10/27 02:30:38;;;;;;;4.28;1.58;;;;;;;7.68;100.00;91859.88;5070714;28;20109;-60
2023/10/27 02:33:04;;;;;;;2.77;1.50;;;;;;;7.77;100.00;91852.50;5070772;28;20455;-59
2023/10/27 02:35:31;;;;;;;2.67;1.30;;;;;;;7.89;100.00;91844.66;5070397;28;20512;-61
2023/10/27 02:37:58;;;;;;;2.88;1.55;;;;;;;7.89;100.00;91850.88;5070859;28;20058;-59
2023/10/27 02:40:25;;;;;;;2.95;1.45;;;;;;;7.94;100.00;91846.78;5068136;28;20040;-59
2023/10/27 02:42:52;;;;;;;2.97;1.60;;;;;;;7.98;100.00;91833.75;5070380;28;20049;-59
2023/10/27 02:45:19;;;;;;;3.53;1.57;;;;;;;8.09;100.00;91838.78;5070976;28;20515;-59
2023/10/27 02:47:46;;;;;;;3.10;1.27;;;;;;;8.16;100.00;91831.09;5070209;28;20090;-60
2023/10/27 02:50:13;;;;;;;2.75;1.50;;;;;;;8.11;100.00;91828.19;5071010;28;20037;-61
2023/10/27 02:52:40;;;;;;;2.70;1.50;;;;;;;8.13;100.00;91834.72;5069974;28;20408;-60
2023/10/27 02:55:08;;;;;;;3.53;1.50;;;;;;;8.17;100.00;91827.16;5070496;28;20037;-58
2023/10/27 02:57:35;;;;;;;3.30;1.43;;;;;;;8.19;100.00;91826.72;5069952;28;20419;-59
2023/10/27 03:00:03;;;;;;;3.58;1.20;;;;;;;8.24;100.00;91828.84;5070381;28;20489;-59
2023/10/27 03:02:30;;;;;;;3.78;1.70;;;;;;;8.28;100.00;91826.72;5069985;28;20045;-59
2023/10/27 03:04:57;;;;;;;3.83;1.60;;;;;;;8.27;100.00;91824.44;5056987;28;20047;-59
2023/10/27 03:07:24;;;;;;;4.05;2.13;;;;;;;8.13;100.00;91823.81;5070605;28;20047;-59
2023/10/27 03:09:51;;;;;;;3.80;1.67;;;;;;;8.14;100.00;91825.31;5069944;28;20040;-60
2023/10/27 03:12:19;;;;;;;4.72;2.28;;;;;;;8.13;100.00;91823.81;5070089;28;20101;-59
2023/10/27 03:14:46;;;;;;;5.28;2.40;;;;;;;8.06;100.00;91826.06;5069546;28;20047;-59
2023/10/27 03:17:12;;;;;;;34.33;18.25;;;;;;;8.06;100.00;91824.06;5070361;28;20768;-59
2023/10/27 03:19:39;;;;;;;7.80;3.88;;;;;;;8.13;100.00;91823.03;5069813;28;20056;-59
2023/10/27 03:22:06;;;;;;;4.03;2.00;;;;;;;8.14;100.00;91819.84;5070342;28;20101;-60
2023/10/27 03:24:33;;;;;;;4.97;1.67;;;;;;;8.22;100.00;91811.38;5069666;28;20044;-58
2023/10/27 03:27:00;;;;;;;4.45;1.90;;;;;;;8.26;100.00;91810.00;5069650;28;20043;-59
2023/10/27 03:29:27;;;;;;;4.97;1.92;;;;;;;8.27;100.00;91808.03;5069861;28;20052;-58
2023/10/27 03:31:54;;;;;;;3.50;1.70;;;;;;;8.29;100.00;91800.94;5069005;28;20542;-59
2023/10/27 03:34:21;;;;;;;3.50;1.70;;;;;;;8.35;100.00;91809.25;5069704;28;20045;-59
2023/10/27 03:36:47;;;;;;;5.18;1.80;;;;;;;8.31;100.00;91805.91;5069467;28;22552;-59
2023/10/27 03:39:14;;;;;;;6.07;3.63;;;;;;;8.30;100.00;91805.16;5068275;28;20052;-62
2023/10/27 03:41:41;;;;;;;6.38;2.42;;;;;;;8.22;100.00;91803.19;5059292;28;20055;-59
2023/10/27 03:44:09;;;;;;;5.20;3.30;;;;;;;8.19;100.00;91813.81;5061438;28;20066;-59
2023/10/27 03:46:36;;;;;;;5.87;2.80;;;;;;;8.24;100.00;91817.16;5069144;28;20036;-59
2023/10/27 03:49:02;;;;;;;4.32;2.30;;;;;;;8.20;100.00;91807.09;5069646;28;20051;-59
2023/10/27 03:51:29;;;;;;;3.92;2.00;;;;;;;8.08;100.00;91808.00;5068930;28;20485;-59
2023/10/27 03:53:56;;;;;;;4.30;2.13;;;;;;;8.07;100.00;91803.75;5069547;28;20047;-62
2023/10/27 03:56:23;;;;;;;4.47;2.40;;;;;;;8.09;100.00;91804.06;5069078;28;20059;-59
2023/10/27 03:58:49;;;;;;;3.00;1.70;;;;;;;8.01;100.00;91808.28;5051226;28;20071;-59
2023/10/27 04:01:17;;;;;;;6.13;3.00;;;;;;;8.09;100.00;91808.75;5069155;28;20033;-59
2023/10/27 04:03:44;;;;;;;6.20;3.70;;;;;;;8.21;100.00;91807.88;5068858;28;20044;-59
2023/10/27 04:06:11;;;;;;;3.25;2.08;;;;;;;8.26;100.00;91812.75;5068672;28;20381;-59
2023/10/27 04:08:38;;;;;;;4.68;2.47;;;;;;;8.24;100.00;91804.25;5068621;28;20044;-59
2023/10/27 04:11:05;;;;;;;4.33;2.27;;;;;;;8.22;100.00;91806.66;5069070;28;20040;-60
2023/10/27 04:13:31;;;;;;;3.83;2.20;;;;;;;8.22;100.00;91808.66;5034489;28;20389;-59
2023/10/27 04:15:58;;;;;;;3.65;1.95;;;;;;;8.23;100.00;91816.41;5068928;28;20060;-59
2023/10/27 04:18:25;;;;;;;5.90;2.28;;;;;;;8.23;100.00;91818.34;5068847;28;20037;-60
2023/10/27 04:20:52;;;;;;;4.28;2.13;;;;;;;8.23;100.00;91824.59;5068441;28;20037;-59
2023/10/27 04:23:19;;;;;;;3.10;1.80;;;;;;;8.22;100.00;91828.53;5068796;28;20041;-59
2023/10/27 04:25:47;;;;;;;4.47;2.20;;;;;;;8.22;100.00;91825.78;5068232;28;20052;-61
2023/10/27 04:28:14;;;;;;;4.93;2.40;;;;;;;8.24;100.00;91823.38;5068663;28;20657;-59
2023/10/27 04:30:41;;;;;;;4.00;2.10;;;;;;;8.32;100.00;91821.13;5068147;28;20048;-60
2023/10/27 04:33:09;;;;;;;3.95;2.20;;;;;;;8.27;100.00;91818.97;5068320;28;20037;-60
2023/10/27 04:35:37;;;;;;;4.27;2.40;;;;;;;8.28;100.00;91826.72;5050323;28;20085;-60
2023/10/27 04:38:03;;;;;;;4.15;2.33;;;;;;;8.26;100.00;91834.59;5068349;28;20051;-60
2023/10/27 04:40:31;;;;;;;4.03;2.17;;;;;;;8.26;100.00;91831.13;5065568;28;20036;-61
2023/10/27 04:42:59;;;;;;;4.18;2.30;;;;;;;8.29;100.00;91827.47;5068520;28;20044;-60
2023/10/27 04:45:27;;;;;;;6.07;2.30;;;;;;;8.31;100.00;91833.25;5068439;28;20481;-59
2023/10/27 04:47:54;;;;;;;4.47;2.60;;;;;;;8.28;100.00;91837.66;5067925;28;20086;-60
2023/10/27 04:50:22;;;;;;;3.70;2.20;;;;;;;8.32;100.00;91838.25;5068676;28;20041;-60
2023/10/27 04:52:49;;;;;;;3.65;2.22;;;;;;;8.38;100.00;91847.38;5050433;28;20040;-60
2023/10/27 04:55:15;;;;;;;3.60;1.90;;;;;;;8.31;100.00;91842.22;5068230;28;20049;-60
2023/10/27 04:57:42;;;;;;;3.72;1.92;;;;;;;8.30;100.00;91842.66;5067740;28;20416;-61
2023/10/27 05:00:10;;;;;;;3.73;1.80;;;;;;;8.26;100.00;91842.81;5068511;28;20059;-59
2023/10/27 05:02:36;;;;;;;2.70;1.50;;;;;;;8.22;100.00;91846.91;5066348;28;20044;-60
2023/10/27 05:05:04;;;;;;;3.40;1.52;;;;;;;8.26;100.00;91847.50;5067933;28;20042;-59
2023/10/27 05:07:30;;;;;;;2.90;1.40;;;;;;;8.27;100.00;91841.59;5067408;28;20045;-59
2023/10/27 05:09:57;;;;;;;3.22;1.70;;;;;;;8.29;100.00;91844.66;5050425;28;20047;-60
2023/10/27 05:12:24;;;;;;;2.53;1.40;;;;;;;8.38;100.00;91865.75;5068258;28;20045;-61
2023/10/27 05:14:51;;;;;;;4.32;1.58;;;;;;;8.39;100.00;91862.59;5067390;28;20129;-60
2023/10/27 05:17:18;;;;;;;3.55;1.73;;;;;;;8.28;100.00;91853.28;5068368;28;20044;-60
2023/10/27 05:19:44;;;;;;;2.20;1.10;;;;;;;8.23;100.00;91865.56;5067566;28;20048;-60
2023/10/27 05:22:13;;;;;;;2.15;1.20;;;;;;;8.28;100.00;91873.16;5068324;28;20055;-60
2023/10/27 05:24:40;;;;;;;4.20;1.10;;;;;;;8.33;100.00;91866.34;5049860;28;20055;-60
2023/10/27 05:27:07;;;;;;;3.08;1.05;;;;;;;8.23;100.00;91873.78;5068220;28;20070;-60
2023/10/27 05:29:34;;;;;;;2.25;1.10;;;;;;;8.20;100.00;91882.88;5067423;28;20049;-61
2023/10/27 05:32:01;;;;;;;2.65;1.10;;;;;;;8.19;100.00;91882.09;5067729;28;20505;-61
2023/10/27 05:34:28;;;;;;;1.90;0.85;;;;;;;8.23;100.00;91884.72;5067757;28;20048;-61
2023/10/27 05:36:57;;;;;;;1.63;0.60;;;;;;;8.29;100.00;91879.38;5066839;28;20692;-61
2023/10/27 05:39:26;;;;;;;1.70;0.70;;;;;;;8.34;100.00;91884.28;5067834;28;20082;-60
2023/10/27 05:41:53;;;;;;;1.67;0.88;;;;;;;8.42;100.00;91884.78;5066632;28;20610;-61
2023/10/27 05:44:20;;;;;;;1.95;0.75;;;;;;;8.36;100.00;91899.00;5068141;28;20048;-60
2023/10/27 05:46:47;;;;;;;1.77;0.90;;;;;;;8.40;100.00;91898.88;5049391;28;20053;-60
2023/10/27 05:49:14;;;;;;;1.80;0.90;;;;;;;8.49;100.00;91906.34;5067642;28;20049;-61
2023/10/27 05:51:41;;;;;;;1.70;0.65;;;;;;;8.50;100.00;91921.56;5069840;28;20036;-61
2023/10/27 05:54:08;;;;;;;1.70;0.85;;;;;;;8.53;100.00;91926.09;5071880;28;20520;-60
2023/10/27 05:56:34;;;;;;;1.50;0.70;;;;;;;8.51;100.00;91929.31;5071122;28;20047;-59
2023/10/27 05:59:01;;;;;;;2.60;0.90;;;;;;;8.57;100.00;91937.66;5069774;28;20059;-59
2023/10/27 06:01:28;;;;;;;2.07;0.93;;;;;;;8.66;100.00;91950.63;5070023;28;20044;-59
2023/10/27 06:03:57;;;;;;;1.80;0.77;;;;;;;8.67;100.00;91950.19;5070392;28;20460;-61
2023/10/27 06:06:26;;;;;;;2.00;0.80;;;;;;;8.73;100.00;91955.78;5053241;28;20037;-60
2023/10/27 06:08:53;;;;;;;2.60;1.55;;;;;;;8.64;100.00;91959.28;5070009;28;20048;-61
2023/10/27 06:11:20;;;;;;;2.05;0.90;;;;;;;8.66;100.00;91969.75;5070547;28;20037;-60
2023/10/27 06:13:47;;;;;;;1.90;0.80;;;;;;;8.61;100.00;91962.88;5069559;28;20046;-60
2023/10/27 06:16:13;;;;;;;1.88;0.70;;;;;;;8.58;100.00;91972.00;5070711;28;20101;-60
2023/10/27 06:18:41;;;;;;;3.03;1.30;;;;;;;8.60;100.00;91970.34;5070040;28;20048;-60
2023/10/27 06:21:07;;;;;;;1.65;0.80;;;;;;;8.54;100.00;91966.69;5070563;28;20040;-60
2023/10/27 06:23:34;;;;;;;2.25;1.00;;;;;;;8.51;100.00;91973.06;5069878;28;20412;-60
2023/10/27 06:26:03;;;;;;;2.20;1.00;;;;;;;8.60;100.00;91975.06;5070379;28;20047;-60
2023/10/27 06:28:30;;;;;;;1.70;0.80;;;;;;;8.59;100.00;91978.97;5069891;28;20040;-60
2023/10/27 06:30:56;;;;;;;1.90;1.30;;;;;;;8.71;100.00;91978.16;5052312;28;20051;-60
2023/10/27 06:33:23;;;;;;;1.75;0.70;;;;;;;8.78;100.00;91980.56;5070135;28;20153;-61
2023/10/27 06:35:50;;;;;;;2.05;0.95;;;;;;;8.83;100.00;91984.69;5069139;28;20078;-64
2023/10/27 06:38:17;;;;;;;2.27;0.80;;;;;;;8.69;100.00;91982.53;5070429;28;20117;-59
2023/10/27 06:40:43;;;;;;;2.10;1.00;;;;;;;8.65;100.00;91993.59;5069544;28;20049;-60
2023/10/27 06:43:10;;;;;;;2.03;0.82;;;;;;;8.59;100.00;91998.91;5070338;28;20513;-60
2023/10/27 06:45:37;;;;;;;2.13;0.80;;;;;;;8.60;100.00;91994.19;5069565;28;20397;-61
2023/10/27 06:48:04;;;;;;;1.60;0.77;;;;;;;8.57;100.00;92003.28;5069922;28;20456;-60
2023/10/27 06:50:31;;;;;;;2.00;0.70;;;;;;;8.49;100.00;91997.34;5069221;28;20041;-59
2023/10/27 06:52:57;;;;;;;4.30;0.98;;;;;;;8.58;100.00;92000.09;5069843;28;20044;-59
2023/10/27 06:55:28;;;;;;;2.13;0.77;;;;;;;8.73;100.00;92005.00;5069220;28;20044;-60
2023/10/27 06:57:55;;;;;;;3.08;1.10;;;;;;;8.64;100.00;92005.00;5069619;28;20503;-60
2023/10/27 07:00:22;;;;;;;1.70;0.85;;;;;;;8.65;100.00;92015.47;5051740;28;20037;-61
2023/10/27 07:02:49;;;;;;;1.83;0.80;;;;;;;8.71;100.00;92021.91;5068628;28;20492;-62
2023/10/27 07:05:21;;;;;;;2.10;0.90;;;;;;;8.73;100.00;92005.00;5069316;28;20041;-60
2023/10/27 07:07:48;;;;;;;1.63;0.80;;;;;;;8.62;100.00;92012.88;5051685;28;20534;-63
2023/10/27 07:10:15;;;;;;;2.15;1.08;;;;;;;8.58;100.00;92007.56;5069618;28;20087;-61
2023/10/27 07:12:43;;;;;;;3.22;1.23;;;;;;;8.59;100.00;92012.56;5068891;28;20052;-61
2023/10/27 07:15:12;;;;;;;5.10;2.10;;;;;;;8.70;100.00;92022.34;5069308;28;20051;-62
2023/10/27 07:17:41;;;;;;;4.00;2.30;;;;;;;8.67;100.00;92015.03;5069314;28;20045;-61
2023/10/27 07:20:09;;;;;;;3.33;1.70;;;;;;;8.87;100.00;92023.59;5050210;28;20040;-61
2023/10/27 07:22:36;;;;;;;3.70;1.55;;;;;;;8.92;100.00;92031.22;5068368;28;20040;-60
2023/10/27 07:25:04;;;;;;;5.25;2.60;;;;;;;8.94;100.00;92037.00;5070059;28;20070;-60
2023/10/27 07:27:33;;;;;;;3.30;1.80;;;;;;;8.93;100.00;92037.44;5069134;28;20048;-62
2023/10/27 07:30:00;;;;;;;2.70;1.40;;;;;;;9.20;100.00;92036.78;5070116;28;20040;-60
2023/10/27 07:32:26;;;;;;;4.10;2.30;;;;;;;9.48;100.00;92042.31;5070125;28;20037;-60
2023/10/27 07:34:53;;;;;;;3.42;1.92;;;;;;;9.29;100.00;92038.78;5068904;28;21824;-61
2023/10/27 07:37:23;;;;;;;4.90;3.00;;;;;;;9.19;100.00;92044.25;5069240;28;20071;-62
2023/10/27 07:39:50;;;;;;;4.77;2.80;;;;;;;9.10;100.00;92051.66;5069004;28;20043;-60
2023/10/27 07:42:17;;;;;;;4.10;2.58;;;;;;;9.00;100.00;92056.34;5069247;28;20048;-60
2023/10/27 07:44:43;;;;;;;4.05;2.00;;;;;;;8.94;100.00;92064.38;5068970;28;20075;-62
2023/10/27 07:47:11;;;;;;;11.27;6.32;;;;;;;8.85;100.00;92066.28;5069511;28;20455;-60
2023/10/27 07:49:37;;;;;;;13.68;7.72;;;;;;;8.89;100.00;92067.69;5069147;28;20051;-62
2023/10/27 07:52:05;;;;;;;3.23;1.47;;;;;;;8.90;100.00;92058.28;5069301;28;20047;-62
2023/10/27 07:54:32;;;;;;;2.28;1.10;;;;;;;8.94;100.00;92075.31;5068626;28;20067;-62
2023/10/27 07:56:59;;;;;;;4.60;3.20;;;;;;;9.09;100.00;92070.03;5069521;28;20055;-63
2023/10/27 07:59:27;;;;;;;2.85;1.65;;;;;;;9.18;100.00;92070.06;5069259;28;20055;-63
2023/10/27 08:01:57;;;;;;;5.03;2.40;;;;;;;9.40;100.00;92080.94;5068360;28;20221;-61
2023/10/27 08:04:27;;;;;;;1.97;1.00;;;;;;;9.69;100.00;92068.78;5069301;28;20439;-60
2023/10/27 08:06:53;;;;;;;2.65;0.80;;;;;;;9.60;100.00;92085.22;5028410;28;21800;-60
2023/10/27 08:09:20;;;;;;;1.98;0.77;;;;;;;9.90;100.00;92085.53;5029271;28;20045;-61
2023/10/27 08:11:48;;;;;;;3.03;0.93;;;;;;;10.06;100.00;92096.22;5028755;28;20048;-63
2023/10/27 08:14:16;;;;;;;2.70;0.90;;;;;;;9.76;100.00;92106.84;5044499;28;20107;-60
2023/10/27 08:16:44;;;;;;;2.53;0.80;;;;;;;9.97;100.00;92099.72;5028724;28;20051;-61
2023/10/27 08:19:11;;;;;;;2.53;1.20;;;;;;;10.85;100.00;92092.03;5029313;28;20068;-61
2023/10/27 08:21:40;;;;;;;2.45;1.13;;;;;;;11.19;100.00;92105.34;5028658;28;20098;-61
2023/10/27 08:24:08;;;;;;;2.30;1.00;;;;;;;10.60;100.00;92102.13;5029080;28;20057;-61
2023/10/27 08:26:35;;;;;;;2.30;0.90;;;;;;;10.27;100.00;92112.97;5028539;28;20049;-60
2023/10/27 08:29:02;;;;;;;1.93;0.80;;;;;;;10.56;100.00;92104.28;5028572;28;20475;-61
2023/10/27 08:31:29;;;;;;;2.40;0.60;;;;;;;11.18;100.00;92103.78;5027172;28;20049;-62
2023/10/27 08:33:59;;;;;;;4.85;1.95;;;;;;;11.30;100.00;92095.81;5028846;28;20182;-62
2023/10/27 08:36:27;;;;;;;2.42;1.10;;;;;;;10.62;100.00;92107.91;5029034;28;20055;-61
2023/10/27 08:38:54;;;;;;;2.67;1.20;;;;;;;11.07;100.00;92103.56;5028144;28;20041;-63
2023/10/27 08:41:24;;;;;;;2.27;1.10;;;;;;;11.30;100.00;92115.06;5028675;28;20052;-62
2023/10/27 08:43:52;;;;;;;2.33;0.80;;;;;;;11.79;100.00;92113.88;5028317;28;20045;-64
2023/10/27 08:46:19;;;;;;;3.58;1.17;;;;;;;12.47;100.00;92107.75;5044368;28;20052;-63
2023/10/27 08:48:47;;;;;;;2.60;1.10;;;;;;;14.61;100.00;92107.44;5027982;28;20104;-63
2023/10/27 08:51:15;;;;;;;1.80;0.80;;;;;;;15.62;100.00;92118.63;5028569;28;20414;-61
2023/10/27 08:53:43;;;;;;;2.80;0.80;;;;;;;15.73;81.19;92106.91;5028414;28;20037;-62
2023/10/27 08:56:13;;;;;;;2.42;0.70;;;;;;;13.74;100.00;92130.91;5028624;28;20465;-60
2023/10/27 08:58:47;;;;;;;2.90;0.70;;;;;;;14.17;100.00;92127.72;5028219;28;20388;-61
2023/10/27 09:01:14;;;;;;;2.50;0.90;;;;;;;13.20;100.00;92141.31;5028589;28;20048;-60
2023/10/27 09:03:40;;;;;;;2.47;0.90;;;;;;;12.39;100.00;92126.63;5026593;28;20073;-60
2023/10/27 09:06:07;;;;;;;5.17;1.40;;;;;;;12.44;100.00;92149.22;5055923;28;20053;-60
2023/10/27 09:08:34;;;;;;;3.05;0.85;;;;;;;12.14;100.00;92147.13;5068125;28;20165;-60
2023/10/27 09:11:01;;;;;;;2.83;1.10;;;;;;;11.80;100.00;92170.38;5068194;28;20033;-60
2023/10/27 09:13:28;;;;;;;4.00;1.77;;;;;;;11.34;100.00;92165.81;5050590;28;20036;-60
2023/10/27 09:15:55;;;;;;;3.30;1.20;;;;;;;11.15;100.00;92175.38;5067170;28;21081;-61
2023/10/27 09:18:36;;;;;;;1.97;0.77;;;;;;;10.98;100.00;92164.72;5068323;28;20045;-60
2023/10/27 09:21:03;;;;;;;2.22;0.80;;;;;;;11.09;100.00;92171.72;5067354;28;20382;-60
2023/10/27 09:23:44;;;;;;;3.97;1.75;;;;;;;11.15;100.00;92158.91;5067854;28;20115;-62
2023/10/27 09:26:11;;;;;;;4.78;1.45;;;;;;;11.68;100.00;92149.38;5054568;28;20049;-60
2023/10/27 09:28:37;;;;;;;3.28;0.90;;;;;;;11.49;100.00;92154.16;5049559;28;20040;-62
2023/10/27 09:31:04;;;;;;;3.90;1.70;;;;;;;11.52;100.00;92167.75;5059765;28;20043;-60
2023/10/27 09:33:31;;;;;;;2.50;0.90;;;;;;;11.63;100.00;92159.03;5067618;28;20057;-62
2023/10/27 09:36:02;;;;;;;3.53;1.40;;;;;;;12.04;100.00;92153.94;5067564;28;20045;-62
2023/10/27 09:38:29;;;;;;;4.25;1.80;;;;;;;11.64;100.00;92174.25;5050270;28;20504;-62
2023/10/27 09:41:00;;;;;;;10.65;4.95;;;;;;;11.62;100.00;92171.22;5049991;28;20508;-61
2023/10/27 09:43:31;;;;;;;14.37;7.37;;;;;;;11.84;100.00;92179.22;5050343;28;20052;-61
2023/10/27 09:46:02;;;;;;;4.45;1.73;;;;;;;11.79;100.00;92185.31;5067205;28;20062;-62
2023/10/27 09:48:30;;;;;;;5.53;2.97;;;;;;;11.65;100.00;92186.00;5050066;28;20048;-63
2023/10/27 09:51:01;;;;;;;5.72;3.10;;;;;;;11.56;100.00;92190.31;5067895;28;20041;-63
2023/10/27 09:53:28;;;;;;;7.75;4.97;;;;;;;11.57;100.00;92191.09;5067946;28;20048;-62
2023/10/27 09:55:58;;;;;;;3.43;1.10;;;;;;;11.90;100.00;92191.13;5066635;28;20378;-62
2023/10/27 09:58:31;;;;;;;3.08;0.80;;;;;;;11.56;100.00;92184.81;5067898;28;20093;-62
2023/10/27 10:01:00;;;;;;;2.80;1.42;;;;;;;11.61;100.00;92197.19;5066733;28;20635;-62
2023/10/27 10:03:28;;;;;;;2.75;1.00;;;;;;;11.16;100.00;92205.09;5050583;28;20349;-62
2023/10/27 10:06:15;;;;;;;2.78;0.82;;;;;;;10.77;100.00;92217.81;5048632;28;20750;-62
2023/10/27 10:09:05;;;;;;;2.43;1.00;;;;;;;11.05;100.00;92221.28;5055535;28;20047;-63
2023/10/27 10:11:55;;;;;;;10.05;5.32;;;;;;;11.12;100.00;92222.94;5066999;28;20041;-63
2023/10/27 10:14:40;;;;;;;4.57;2.10;;;;;;;11.03;100.00;92228.44;5067325;28;20045;-62
2023/10/27 10:17:08;;;;;;;2.88;0.90;;;;;;;10.68;100.00;92231.53;5066702;28;21284;-61
2023/10/27 10:19:48;;;;;;;3.30;1.60;;;;;;;10.59;100.00;92227.56;5066859;28;20607;-62
2023/10/27 10:22:45;;;;;;;3.93;1.30;;;;;;;10.35;100.00;92216.41;5067597;28;20060;-62
2023/10/27 10:25:14;;;;;;;3.08;1.00;;;;;;;10.35;100.00;92221.91;5027943;28;20180;-61
2023/10/27 10:28:09;;;;;;;4.32;1.63;;;;;;;10.75;100.00;92218.25;5066733;28;20458;-61
2023/10/27 10:30:40;;;;;;;5.78;2.00;;;;;;;10.89;100.00;92221.63;5060587;28;20060;-61
2023/10/27 10:33:29;;;;;;;5.63;1.77;;;;;;;10.94;100.00;92221.75;5067186;28;20136;-61
2023/10/27 10:36:24;;;;;;;4.90;1.70;;;;;;;10.87;100.00;92232.28;5066075;28;20047;-62
2023/10/27 10:39:00;;;;;;;2.35;1.00;;;;;;;11.02;100.00;92226.94;5069835;28;20503;-61
2023/10/27 10:41:52;;;;;;;5.68;2.53;;;;;;;11.06;100.00;92222.78;5070986;28;20048;-61
2023/10/27 10:44:19;;;;;;;7.32;2.17;;;;;;;11.27;100.00;92220.31;5070167;28;21701;-63
2023/10/27 10:46:46;;;;;;;7.82;4.07;;;;;;;11.03;100.00;92221.00;5070023;28;20049;-61
2023/10/27 10:49:23;;;;;;;6.37;3.03;;;;;;;11.48;100.00;92222.09;5069604;28;20041;-63
2023/10/27 10:51:57;;;;;;;4.50;1.80;;;;;;;11.68;100.00;92207.06;5069965;28;20496;-64
2023/10/27 10:54:34;;;;;;;2.40;1.02;;;;;;;11.94;100.00;92218.44;5070890;28;20044;-62
2023/10/27 10:57:11;;;;;;;2.95;0.68;;;;;;;11.94;100.00;92216.44;5069324;28;20673;-63
2023/10/27 10:59:52;;;;;;;3.45;1.20;;;;;;;12.26;100.00;92205.88;5053095;28;20101;-61
2023/10/27 11:02:21;;;;;;;3.83;2.03;;;;;;;11.92;100.00;92207.16;5058896;28;20040;-60
2023/10/27 11:04:47;;;;;;;3.00;0.98;;;;;;;12.05;100.00;92198.66;5064184;28;20056;-61
2023/10/27 11:07:18;;;;;;;3.38;1.30;;;;;;;11.96;100.00;92200.25;5052728;28;20052;-62
2023/10/27 11:09:45;;;;;;;2.30;0.90;;;;;;;11.86;100.00;92208.97;5069949;28;20046;-61
2023/10/27 11:12:27;;;;;;;2.80;1.20;;;;;;;11.66;100.00;92206.78;5070078;28;20494;-61
2023/10/27 11:14:54;;;;;;;1.93;0.70;;;;;;;11.65;100.00;92208.78;5052191;28;20044;-63
2023/10/27 11:17:20;;;;;;;3.22;0.82;;;;;;;11.16;100.00;92207.06;5069761;28;20042;-61
2023/10/27 11:19:51;;;;;;;4.03;1.30;;;;;;;10.99;100.00;92214.91;5069236;28;20048;-61
2023/10/27 11:22:22;;;;;;;2.50;1.00;;;;;;;10.90;100.00;92212.16;5069811;28;20068;-63
2023/10/27 11:24:49;;;;;;;4.13;2.30;;;;;;;11.24;100.00;92204.78;5069609;28;20058;-61
2023/10/27 11:27:26;;;;;;;2.63;1.10;;;;;;;11.18;100.00;92221.09;5052086;28;20063;-61
2023/10/27 11:30:00;;;;;;;2.28;0.80;;;;;;;11.41;100.00;92214.19;5069797;28;20063;-61
2023/10/27 11:32:27;;;;;;;1.80;0.70;;;;;;;11.57;100.00;92210.34;5070036;28;20048;-62
2023/10/27 11:34:56;;;;;;;3.55;0.93;;;;;;;11.62;100.00;92214.44;5069132;28;20044;-63
2023/10/27 11:37:23;;;;;;;2.40;0.90;;;;;;;11.46;100.00;92210.81;5069891;28;20036;-63